createdAt,value
2022-12-23T00:00:04.728Z,52.48
2022-12-23T00:02:38.516Z,51.53
2022-12-23T00:05:07.330Z,51.90
2022-12-23T00:07:35.306Z,53.79
2022-12-23T00:10:03.090Z,53.24
2022-12-23T00:12:48.994Z,53.22
2022-12-23T00:15:16.758Z,54.13
2022-12-23T00:17:45.950Z,53.24
2022-12-23T00:20:15.593Z,53.00
2022-12-23T00:23:00.982Z,50.52
2022-12-23T00:25:41.229Z,50.93
2022-12-23T00:28:12.465Z,52.35
2022-12-23T00:30:46.701Z,52.63
2022-12-23T00:33:14.918Z,50.20
2022-12-23T00:35:42.753Z,50.25
2022-12-23T00:38:10.880Z,53.53
2022-12-23T00:40:56.646Z,52.98
2022-12-23T00:43:25.744Z,54.13
2022-12-23T00:45:53.553Z,53.37
2022-12-23T00:48:38.748Z,52.07
2022-12-23T00:51:06.843Z,51.58
2022-12-23T00:53:34.580Z,51.23
2022-12-23T00:56:02.325Z,52.11
2022-12-23T00:58:31.887Z,52.83
2022-12-23T01:01:17.156Z,52.03
2022-12-23T01:03:58.891Z,51.66
2022-12-23T01:06:26.673Z,53.12
2022-12-23T01:08:54.356Z,52.30
2022-12-23T01:11:22.114Z,50.92
2022-12-23T01:13:51.205Z,50.80
2022-12-23T01:16:19.176Z,50.30
2022-12-23T01:18:46.961Z,49.55
2022-12-23T01:21:14.775Z,49.07
2022-12-23T01:23:42.558Z,50.82
2022-12-23T01:26:10.472Z,50.62
2022-12-23T01:28:38.475Z,51.18
2022-12-23T01:31:10.871Z,52.15
2022-12-23T01:33:38.639Z,53.51
2022-12-23T01:36:08.511Z,53.74
2022-12-23T01:38:36.288Z,52.75
2022-12-23T01:41:04.036Z,51.66
2022-12-23T01:43:45.653Z,53.41
2022-12-23T01:46:14.877Z,52.85
2022-12-23T01:48:43.131Z,54.64
2022-12-23T01:51:14.366Z,54.89
2022-12-23T01:53:45.433Z,53.32
2022-12-23T01:56:14.827Z,55.43
2022-12-23T01:58:45.144Z,53.72
2022-12-23T02:01:32.276Z,51.81
2022-12-23T02:04:03.230Z,52.33
2022-12-23T02:06:52.569Z,53.27
2022-12-23T02:09:22.416Z,57.53
2022-12-23T02:12:21.380Z,54.44
2022-12-23T02:15:16.638Z,54.91
2022-12-23T02:17:53.997Z,53.89
2022-12-23T02:20:37.497Z,54.17
2022-12-23T02:23:20.768Z,54.13
2022-12-23T02:25:57.926Z,55.18
2022-12-23T02:28:42.305Z,61.42
2022-12-23T02:31:19.872Z,55.79
2022-12-23T02:33:53.904Z,55.51
2022-12-23T02:36:32.604Z,56.26
2022-12-23T02:39:04.843Z,54.38
2022-12-23T02:41:37.648Z,54.17
2022-12-23T02:44:11.282Z,53.29
2022-12-23T02:46:47.266Z,55.82
2022-12-23T02:49:18.200Z,56.42
2022-12-23T02:51:49.290Z,54.42
2022-12-23T02:54:20.909Z,52.99
2022-12-23T02:56:51.093Z,53.01
2022-12-23T02:59:20.938Z,55.08
2022-12-23T03:01:50.911Z,52.94
2022-12-23T03:04:18.794Z,52.94
2022-12-23T03:06:49.661Z,53.42
2022-12-23T03:09:26.094Z,53.33
2022-12-23T03:12:06.652Z,52.98
2022-12-23T03:14:52.081Z,52.80
2022-12-23T03:17:31.185Z,52.60
2022-12-23T03:20:05.102Z,53.57
2022-12-23T03:22:36.746Z,53.56
2022-12-23T03:25:07.401Z,52.80
2022-12-23T03:27:39.859Z,54.77
2022-12-23T03:30:09.962Z,53.82
2022-12-23T03:32:42.381Z,54.29
2022-12-23T03:35:10.887Z,54.26
2022-12-23T03:37:42.233Z,53.63
2022-12-23T03:40:13.202Z,53.78
2022-12-23T03:42:42.619Z,56.03
2022-12-23T03:48:09.362Z,54.44
2022-12-23T03:50:37.694Z,53.10
2022-12-23T03:53:09.614Z,53.54
2022-12-23T03:55:39.936Z,55.17
2022-12-23T03:58:12.840Z,57.16
2022-12-23T04:00:45.005Z,56.05
2022-12-23T04:03:19.859Z,55.37
2022-12-23T04:05:51.771Z,53.06
2022-12-23T04:08:24.005Z,54.63
2022-12-23T04:10:52.242Z,53.50
2022-12-23T04:13:20.115Z,54.29
2022-12-23T04:15:48.000Z,53.37
2022-12-23T04:18:17.286Z,52.61
2022-12-23T04:20:45.075Z,54.07
2022-12-23T04:23:12.808Z,52.42
2022-12-23T04:25:40.483Z,51.74
2022-12-23T04:28:08.217Z,51.74
2022-12-23T04:30:35.959Z,54.52
2022-12-23T04:33:03.742Z,53.62
2022-12-23T04:35:32.885Z,53.41
2022-12-23T04:38:00.679Z,54.32
2022-12-23T04:40:28.538Z,51.80
2022-12-23T04:42:56.270Z,51.38
2022-12-23T04:45:24.042Z,53.68
2022-12-23T04:47:51.788Z,54.73
2022-12-23T04:50:19.572Z,55.46
2022-12-23T04:52:48.705Z,57.62
2022-12-23T04:55:16.590Z,54.92
2022-12-23T04:57:44.392Z,53.60
2022-12-23T05:00:13.165Z,53.17
2022-12-23T05:02:41.060Z,53.56
2022-12-23T05:05:09.476Z,54.87
2022-12-23T05:07:37.236Z,53.67
2022-12-23T05:10:07.139Z,53.62
2022-12-23T05:12:34.879Z,52.30
2022-12-23T05:15:02.600Z,52.09
2022-12-23T05:17:30.317Z,55.07
2022-12-23T05:19:58.043Z,54.79
2022-12-23T05:22:25.790Z,53.95
2022-12-23T05:24:53.527Z,53.56
2022-12-23T05:27:22.630Z,55.31
2022-12-23T05:29:50.368Z,53.94
2022-12-23T05:32:18.082Z,53.81
2022-12-23T05:34:45.938Z,54.53
2022-12-23T05:37:13.713Z,53.15
2022-12-23T05:39:41.447Z,51.88
2022-12-23T05:42:09.179Z,51.55
2022-12-23T05:44:38.303Z,51.92
2022-12-23T05:47:06.095Z,52.56
2022-12-23T05:49:33.835Z,54.13
2022-12-23T05:52:01.564Z,54.48
2022-12-23T05:54:29.254Z,53.48
2022-12-23T05:56:56.944Z,52.47
2022-12-23T05:59:30.579Z,54.63
2022-12-23T06:02:00.509Z,52.70
2022-12-23T06:04:28.576Z,53.61
2022-12-23T06:06:56.363Z,52.24
2022-12-23T06:09:24.071Z,55.11
2022-12-23T06:11:51.853Z,51.41
2022-12-23T06:14:23.844Z,51.15
2022-12-23T06:16:54.727Z,51.07
2022-12-23T06:19:23.871Z,55.37
2022-12-23T06:21:51.578Z,53.55
2022-12-23T06:24:19.291Z,51.82
2022-12-23T06:26:49.779Z,52.67
2022-12-23T06:29:21.351Z,53.97
2022-12-23T06:31:49.173Z,54.63
2022-12-23T06:34:17.026Z,49.23
2022-12-23T06:36:46.180Z,48.18
2022-12-23T06:39:14.151Z,51.30
2022-12-23T06:41:41.910Z,50.66
2022-12-23T06:44:10.061Z,49.68
2022-12-23T06:46:37.809Z,50.93
2022-12-23T06:49:12.606Z,47.80
2022-12-23T06:51:40.704Z,47.81
2022-12-23T06:54:11.247Z,48.83
2022-12-23T06:56:38.991Z,47.81
2022-12-23T06:59:06.769Z,49.41
2022-12-23T07:01:34.686Z,49.23
2022-12-23T07:04:03.066Z,47.90
2022-12-23T07:06:30.856Z,50.48
2022-12-23T07:08:58.714Z,48.80
2022-12-23T07:11:27.842Z,46.78
2022-12-23T07:13:55.651Z,47.37
2022-12-23T07:16:23.532Z,48.37
2022-12-23T07:18:51.326Z,45.86
2022-12-23T07:21:28.314Z,46.47
2022-12-23T07:23:57.033Z,47.24
2022-12-23T07:26:24.799Z,45.88
2022-12-23T07:28:53.888Z,47.20
2022-12-23T07:31:21.710Z,49.78
2022-12-23T07:33:49.509Z,47.95
2022-12-23T07:36:17.888Z,48.19
2022-12-23T07:38:45.632Z,47.13
2022-12-23T07:41:13.368Z,46.50
2022-12-23T07:43:41.218Z,48.32
2022-12-23T07:46:10.726Z,48.32
2022-12-23T07:48:38.576Z,46.10
2022-12-23T07:51:06.742Z,46.90
2022-12-23T07:53:34.534Z,48.37
2022-12-23T07:56:02.267Z,46.62
2022-12-23T07:58:30.014Z,46.72
2022-12-23T08:01:02.448Z,47.56
2022-12-23T08:03:31.895Z,47.10
2022-12-23T08:06:03.707Z,47.39
2022-12-23T08:08:31.894Z,46.87
2022-12-23T08:11:00.931Z,46.30
2022-12-23T08:13:29.004Z,47.05
2022-12-23T08:15:57.719Z,45.90
2022-12-23T08:18:26.115Z,47.15
2022-12-23T08:20:59.404Z,48.10
2022-12-23T08:23:28.876Z,46.63
2022-12-23T08:26:01.396Z,46.67
2022-12-23T08:28:29.516Z,46.61
2022-12-23T08:30:57.499Z,45.80
2022-12-23T08:33:25.254Z,44.98
2022-12-23T08:35:55.149Z,45.65
2022-12-23T08:38:24.312Z,45.82
2022-12-23T08:40:51.983Z,44.25
2022-12-23T08:43:20.628Z,43.85
2022-12-23T08:45:48.482Z,43.42
2022-12-23T08:48:16.511Z,43.36
2022-12-23T08:50:46.048Z,42.87
2022-12-23T08:53:14.406Z,44.07
2022-12-23T08:55:45.287Z,43.99
2022-12-23T08:58:13.986Z,43.32
2022-12-23T09:00:41.803Z,42.60
2022-12-23T09:03:09.821Z,42.80
2022-12-23T09:05:40.706Z,42.45
2022-12-23T09:08:08.855Z,43.72
2022-12-23T09:10:43.385Z,42.92
2022-12-23T09:13:13.790Z,44.04
2022-12-23T09:15:44.633Z,41.72
2022-12-23T09:18:12.842Z,43.10
2022-12-23T09:20:40.580Z,43.33
2022-12-23T09:23:08.315Z,42.12
2022-12-23T09:25:37.304Z,41.87
2022-12-23T09:28:07.810Z,41.65
2022-12-23T09:30:35.577Z,40.54
2022-12-23T09:33:03.382Z,41.46
2022-12-23T09:35:31.154Z,40.03
2022-12-23T09:37:58.916Z,40.26
2022-12-23T09:40:30.541Z,40.61
2022-12-23T09:43:07.745Z,40.50
2022-12-23T09:45:49.857Z,41.71
2022-12-23T09:48:20.538Z,41.75
2022-12-23T09:50:48.422Z,40.80
2022-12-23T09:53:18.170Z,40.94
2022-12-23T09:55:50.957Z,40.39
2022-12-23T09:58:28.776Z,40.46
2022-12-23T10:01:07.849Z,39.89
2022-12-23T10:03:41.961Z,39.22
2022-12-23T10:06:14.336Z,39.28
2022-12-23T10:08:46.116Z,39.70
2022-12-23T10:11:15.807Z,40.55
2022-12-23T10:13:46.696Z,39.36
2022-12-23T10:16:18.176Z,50.30
2022-12-23T10:18:52.565Z,41.33
2022-12-23T10:21:27.968Z,46.14
2022-12-23T10:23:56.490Z,41.67
2022-12-23T10:26:26.364Z,41.40
2022-12-23T10:29:01.581Z,41.15
2022-12-23T10:31:42.859Z,40.64
2022-12-23T10:34:17.236Z,51.73
2022-12-23T10:36:50.343Z,41.33
2022-12-23T10:39:29.529Z,40.18
2022-12-23T10:42:04.686Z,40.27
2022-12-23T10:44:57.453Z,39.51
2022-12-23T10:47:34.388Z,54.12
2022-12-23T10:50:11.094Z,56.50
2022-12-23T10:52:42.021Z,57.85
2022-12-23T10:55:17.300Z,56.52
2022-12-23T10:57:45.071Z,56.73
2022-12-23T11:00:19.542Z,57.87
2022-12-23T11:03:03.340Z,55.83
2022-12-23T11:05:31.698Z,56.32
2022-12-23T11:07:59.779Z,56.18
2022-12-23T11:10:31.287Z,56.10
2022-12-23T11:12:59.120Z,57.64
2022-12-23T11:15:34.489Z,57.40
2022-12-23T11:18:05.094Z,56.87
2022-12-23T11:20:33.515Z,57.18
2022-12-23T11:23:02.785Z,57.99
2022-12-23T11:25:37.031Z,57.42
2022-12-23T11:28:08.031Z,58.53
2022-12-23T11:30:55.668Z,59.50
2022-12-23T11:33:26.319Z,57.49
2022-12-23T11:36:06.126Z,57.26
2022-12-23T11:38:35.441Z,57.03
2022-12-23T11:41:04.661Z,54.93
2022-12-23T11:43:32.664Z,56.42
2022-12-23T11:46:19.895Z,56.66
2022-12-23T11:48:54.345Z,56.67
2022-12-23T11:51:26.840Z,56.13
2022-12-23T11:54:00.943Z,56.36
2022-12-23T11:56:30.183Z,56.85
2022-12-23T11:59:02.453Z,57.50
2022-12-23T12:01:31.642Z,56.94
2022-12-23T12:04:01.826Z,57.16
2022-12-23T12:06:30.817Z,56.46
2022-12-23T12:09:00.303Z,56.39
2022-12-23T12:11:30.765Z,56.75
2022-12-23T12:14:00.710Z,57.11
2022-12-23T12:16:44.645Z,58.40
2022-12-23T12:19:16.669Z,58.91
2022-12-23T12:21:45.733Z,58.48
2022-12-23T12:24:19.573Z,58.70
2022-12-23T12:26:51.129Z,58.17
2022-12-23T12:29:22.417Z,58.21
2022-12-23T12:31:52.983Z,60.51
2022-12-23T12:34:33.381Z,60.18
2022-12-23T12:37:04.316Z,60.98
2022-12-23T12:39:37.206Z,60.41
2022-12-23T12:42:12.805Z,59.36
2022-12-23T12:44:43.492Z,58.41
2022-12-23T12:47:44.464Z,57.35
2022-12-23T12:50:08.045Z,58.29
2022-12-23T12:52:38.553Z,59.27
2022-12-23T12:55:14.739Z,58.83
2022-12-23T12:57:42.591Z,58.67
2022-12-23T13:00:15.922Z,59.08
2022-12-23T13:02:59.406Z,58.56
2022-12-23T13:05:35.610Z,57.75
2022-12-23T13:08:18.829Z,56.33
2022-12-23T13:10:50.958Z,55.02
2022-12-23T13:13:29.501Z,56.19
2022-12-23T13:16:02.449Z,56.13
2022-12-23T13:18:39.338Z,55.70
2022-12-23T13:21:12.576Z,54.25
2022-12-23T13:23:45.153Z,54.71
2022-12-23T13:26:21.025Z,58.40
2022-12-23T13:28:55.577Z,59.04
2022-12-23T13:31:32.182Z,60.47
2022-12-23T13:34:06.021Z,60.75
2022-12-23T13:36:41.086Z,60.45
2022-12-23T13:39:18.518Z,59.69
2022-12-23T13:41:48.671Z,59.66
2022-12-23T13:44:18.627Z,58.86
2022-12-23T13:46:52.927Z,59.50
2022-12-23T13:49:32.683Z,59.90
2022-12-23T13:52:06.203Z,60.07
2022-12-23T13:54:43.644Z,60.29
2022-12-23T13:57:19.222Z,59.25
2022-12-23T14:00:04.940Z,59.00
2022-12-23T14:02:43.585Z,58.24
2022-12-23T14:05:36.911Z,59.74
2022-12-23T14:08:06.617Z,58.51
2022-12-23T14:10:35.124Z,57.27
2022-12-23T14:13:05.845Z,55.71
2022-12-23T14:15:44.889Z,56.13
2022-12-23T14:18:25.347Z,56.92
2022-12-23T14:21:01.661Z,56.90
2022-12-23T14:23:39.609Z,56.58
2022-12-23T14:26:19.882Z,57.28
2022-12-23T14:29:03.929Z,56.90
2022-12-23T14:31:40.807Z,56.37
2022-12-23T14:34:27.339Z,54.01
2022-12-23T14:37:32.519Z,53.04
2022-12-23T14:40:40.149Z,55.08
2022-12-23T14:43:38.814Z,56.55
2022-12-23T14:46:07.225Z,56.66
2022-12-23T14:49:38.479Z,56.88
2022-12-23T14:52:44.804Z,57.11
2022-12-23T14:55:46.416Z,58.70
2022-12-23T14:58:55.496Z,59.19
2022-12-23T15:01:30.410Z,58.98
2022-12-23T15:04:01.670Z,58.17
2022-12-23T15:06:34.697Z,59.55
2022-12-23T15:09:02.813Z,59.05
2022-12-23T15:11:33.813Z,58.30
2022-12-23T15:14:04.688Z,57.25
2022-12-23T15:16:35.181Z,57.38
2022-12-23T15:19:13.918Z,57.88
2022-12-23T15:21:43.183Z,57.90
2022-12-23T15:24:17.426Z,60.40
2022-12-23T15:27:09.754Z,59.89
2022-12-23T15:29:38.499Z,59.49
2022-12-23T15:32:06.352Z,61.18
2022-12-23T15:34:35.249Z,60.73
2022-12-23T15:37:03.091Z,59.70
2022-12-23T15:39:34.535Z,57.87
2022-12-23T15:42:04.075Z,59.22
2022-12-23T15:44:37.424Z,59.37
2022-12-23T15:47:22.844Z,58.68
2022-12-23T15:49:50.781Z,59.70
2022-12-23T15:52:20.604Z,60.32
2022-12-23T15:54:55.205Z,61.40
2022-12-23T15:57:27.569Z,62.21
2022-12-23T15:59:55.597Z,63.74
2022-12-23T16:02:59.898Z,64.16
2022-12-23T16:05:26.080Z,63.90
2022-12-23T16:08:09.970Z,65.04
2022-12-23T16:10:37.796Z,64.50
2022-12-23T16:13:15.507Z,63.18
2022-12-23T16:15:43.261Z,63.29
2022-12-23T16:18:19.093Z,62.58
2022-12-23T16:20:48.217Z,60.92
2022-12-23T16:23:16.951Z,62.20
2022-12-23T16:25:50.420Z,64.41
2022-12-23T16:28:24.118Z,64.01
2022-12-23T16:30:53.505Z,64.17
2022-12-23T16:33:31.886Z,63.57
2022-12-23T16:36:16.240Z,64.46
2022-12-23T16:38:44.200Z,64.22
2022-12-23T16:41:11.946Z,67.84
2022-12-23T16:43:44.704Z,68.39
2022-12-23T16:46:18.698Z,69.92
2022-12-23T16:48:50.613Z,72.04
2022-12-23T16:51:20.413Z,72.69
2022-12-23T16:53:48.484Z,71.37
2022-12-23T16:56:18.330Z,70.30
2022-12-23T16:58:47.574Z,67.72
2022-12-23T17:01:15.744Z,65.00
2022-12-23T17:03:43.542Z,66.01
2022-12-23T17:06:13.936Z,75.50
2022-12-23T17:08:42.008Z,78.86
2022-12-23T17:11:14.525Z,83.62
2022-12-23T17:13:42.284Z,77.80
2022-12-23T17:16:15.274Z,73.62
2022-12-23T17:18:43.155Z,73.38
2022-12-23T17:21:18.081Z,72.15
2022-12-23T17:23:45.883Z,65.92
2022-12-23T17:26:13.605Z,72.49
2022-12-23T17:28:41.533Z,74.60
2022-12-23T17:31:14.359Z,75.54
2022-12-23T17:33:44.646Z,71.07
2022-12-23T17:36:12.941Z,67.95
2022-12-23T17:38:40.950Z,100.00
2022-12-23T18:03:43.081Z,100.00
2022-12-23T18:06:14.564Z,100.00
2022-12-23T18:13:48.375Z,100.00
2022-12-23T18:16:16.238Z,100.00
2022-12-23T18:18:46.937Z,100.00
2022-12-23T18:21:22.521Z,100.00
2022-12-23T18:23:55.430Z,100.00
2022-12-23T18:26:23.232Z,100.00
2022-12-23T18:28:51.341Z,100.00
2022-12-23T18:31:21.736Z,100.00
2022-12-23T18:33:49.548Z,100.00
2022-12-23T18:36:23.207Z,100.00
2022-12-23T18:38:52.064Z,100.00
2022-12-23T18:41:19.994Z,100.00
2022-12-23T18:43:47.814Z,100.00
2022-12-23T18:46:15.581Z,100.00
2022-12-23T18:48:43.556Z,100.00
2022-12-23T18:51:14.707Z,100.00
2022-12-23T18:53:44.091Z,100.00
2022-12-23T18:56:14.353Z,100.00
2022-12-23T18:58:42.277Z,100.00
2022-12-23T19:01:12.602Z,100.00
2022-12-23T19:03:40.474Z,100.00
2022-12-23T19:06:09.541Z,100.00
2022-12-23T19:13:40.071Z,100.00
2022-12-23T19:16:08.076Z,100.00
2022-12-23T19:18:36.089Z,100.00
2022-12-23T19:21:05.559Z,100.00
2022-12-23T19:23:33.378Z,100.00
2022-12-23T19:26:02.252Z,100.00
2022-12-23T19:28:31.336Z,100.00
2022-12-23T19:30:59.303Z,100.00
2022-12-23T19:33:27.061Z,100.00
2022-12-23T19:35:54.817Z,100.00
2022-12-23T19:38:22.584Z,100.00
2022-12-23T19:40:57.757Z,100.00
2022-12-23T19:43:25.549Z,100.00
2022-12-23T19:45:59.267Z,100.00
2022-12-23T19:48:27.174Z,100.00
2022-12-23T19:50:58.961Z,100.00
2022-12-23T19:53:26.763Z,100.00
2022-12-23T19:55:59.298Z,100.00
2022-12-23T19:58:27.905Z,100.00
2022-12-23T20:01:08.029Z,100.00
2022-12-23T20:03:36.041Z,86.50
